Time;durP1;ratioP1;P1;durP2;ratioP2;P2;SDS_P1;SDS_P2;PMS_P1;PMS_P2;Temp;Humidity;BMP_temperature;BMP_pressure;BME280_temperature;BME280_humidity;BME280_pressure;Samples;Min_cycle;Max_cycle;Signal;HPM_P1;HPM_P2
2022/01/20 00:00:15;;;;;;;7.03;1.35;;;4.90;99.90;;;;;;5065546;28;20062;-84
2022/01/20 00:02:42;;;;;;;13.23;1.83;;;4.00;99.90;;;;;;5092843;27;20101;-84
2022/01/20 00:08:00;;;;;;;9.82;1.50;;;4.10;99.90;;;;;;5119255;27;20488;-85
2022/01/20 00:27:57;;;;;;;7.32;1.30;;;4.60;99.90;;;;;;5121467;27;20046;-85
2022/01/20 00:35:25;;;;;;;14.88;1.88;;;4.10;99.90;;;;;;5131280;27;20043;-84
2022/01/20 00:37:51;;;;;;;14.43;1.50;;;4.00;99.90;;;;;;5116489;27;20042;-85
2022/01/20 00:40:17;;;;;;;11.73;2.15;;;3.90;99.90;;;;;;5101277;27;20039;-85
2022/01/20 00:42:43;;;;;;;11.85;1.77;;;3.90;99.90;;;;;;5124634;27;20038;-85
2022/01/20 00:45:09;;;;;;;10.90;1.52;;;3.90;99.90;;;;;;5122107;27;20034;-85
2022/01/20 00:47:47;;;;;;;11.80;1.60;;;3.90;99.90;;;;;;5125010;27;20128;-89
2022/01/20 00:50:13;;;;;;;13.55;2.03;;;4.70;99.90;;;;;;5124416;27;20129;-86
2022/01/20 00:52:39;;;;;;;12.73;1.33;;;4.00;99.90;;;;;;5117326;27;20038;-86
2022/01/20 00:55:16;;;;;;;13.38;2.20;;;4.80;99.90;;;;;;5123059;27;20045;-88
2022/01/20 00:57:45;;;;;;;17.20;1.42;;;3.90;99.90;;;;;;5132175;27;20030;-91
2022/01/20 01:00:13;;;;;;;13.73;2.08;;;4.00;99.90;;;;;;5108109;27;20034;-85
2022/01/20 01:02:44;;;;;;;12.65;1.45;;;3.90;99.90;;;;;;5123713;27;20505;-90
2022/01/20 01:05:11;;;;;;;15.27;1.60;;;4.80;99.90;;;;;;5130142;27;20114;-85
2022/01/20 01:07:48;;;;;;;14.43;1.95;;;4.00;99.90;;;;;;5090923;27;20114;-84
2022/01/20 01:10:21;;;;;;;11.32;1.77;;;4.50;99.90;;;;;;5117691;27;20130;-85
2022/01/20 01:15:21;;;;;;;11.27;1.15;;;4.30;99.90;;;;;;5130325;27;20115;-84
2022/01/20 01:23:47;;;;;;;5.15;1.08;;;4.20;99.90;;;;;;5105902;28;20422;-76
2022/01/20 01:26:16;;;;;;;8.65;1.42;;;4.70;99.90;;;;;;5099050;28;20059;-76
2022/01/20 01:28:44;;;;;;;9.18;1.10;;;5.40;99.90;;;;;;5090290;28;20064;-76
2022/01/20 01:33:38;;;;;;;9.23;1.38;;;4.00;99.90;;;;;;5107169;28;20028;-75
2022/01/20 01:36:06;;;;;;;8.80;1.33;;;5.30;99.90;;;;;;5105381;28;20032;-79
2022/01/20 01:38:48;;;;;;;10.52;1.30;;;4.00;99.90;;;;;;5067483;28;20101;-80
2022/01/20 01:41:18;;;;;;;9.77;1.30;;;5.10;99.90;;;;;;5077902;28;20069;-77
2022/01/20 01:43:48;;;;;;;10.75;1.33;;;5.90;99.90;;;;;;5106224;28;20044;-77
2022/01/20 01:46:15;;;;;;;7.45;1.20;;;4.80;99.90;;;;;;5088744;28;20117;-77
2022/01/20 01:48:44;;;;;;;5.75;1.30;;;3.90;99.90;;;;;;5068759;28;20055;-77
2022/01/20 01:51:10;;;;;;;8.18;1.50;;;3.90;99.90;;;;;;5095746;28;20123;-77
2022/01/20 01:53:37;;;;;;;12.50;1.55;;;4.80;99.90;;;;;;5071575;28;20043;-77
2022/01/20 01:56:04;;;;;;;11.70;1.60;;;4.70;99.90;;;;;;5143092;27;20155;-77
2022/01/20 01:58:30;;;;;;;8.73;1.30;;;3.80;99.90;;;;;;5113545;27;20042;-78
2022/01/20 02:00:57;;;;;;;12.10;1.17;;;4.20;99.90;;;;;;5096996;27;20046;-77
2022/01/20 02:03:24;;;;;;;;;;;4.10;99.90;;;;;;5131118;27;20050;-77
2022/01/20 02:06:30;;;;;;;10.32;1.65;;;4.00;99.90;;;;;;5096424;27;19919;-77
2022/01/20 02:19:33;;;;;;;18.20;2.22;;;4.40;99.90;;;;;;5107498;27;20055;-77
2022/01/20 02:22:02;;;;;;;16.27;2.00;;;5.30;99.90;;;;;;5110531;27;20055;-78
2022/01/20 02:24:29;;;;;;;10.52;1.85;;;4.20;99.90;;;;;;5128864;27;20280;-77
2022/01/20 02:26:55;;;;;;;9.32;1.70;;;4.00;99.90;;;;;;5145449;27;20034;-77
2022/01/20 02:29:21;;;;;;;12.75;1.70;;;4.80;99.90;;;;;;5152655;27;20038;-78
2022/01/20 02:31:47;;;;;;;11.38;1.73;;;3.90;99.90;;;;;;5135175;27;20037;-77
2022/01/20 02:34:14;;;;;;;9.32;1.80;;;4.30;99.90;;;;;;5144292;27;20547;-77
2022/01/20 02:36:44;;;;;;;10.10;1.70;;;4.50;99.90;;;;;;5116308;27;20385;-78
2022/01/20 02:44:56;;;;;;;17.15;2.70;;;3.50;99.90;;;;;;5134570;27;20042;-77
2022/01/20 02:47:25;;;;;;;17.48;3.13;;;4.10;99.90;;;;;;5152395;27;20035;-77
2022/01/20 02:49:51;;;;;;;14.52;2.38;;;4.70;99.90;;;;;;5117371;27;20560;-77
2022/01/20 02:52:18;;;;;;;16.20;2.75;;;5.40;99.90;;;;;;5133957;27;20034;-77
2022/01/20 02:54:44;;;;;;;20.00;3.50;;;4.10;99.90;;;;;;5152335;27;20470;-77
2022/01/20 02:57:10;;;;;;;14.27;3.10;;;3.80;99.90;;;;;;5134324;27;20062;-77
2022/01/20 02:59:38;;;;;;;21.00;3.10;;;4.50;99.90;;;;;;5112967;27;20035;-77
2022/01/20 03:02:05;;;;;;;18.23;2.92;;;4.10;99.90;;;;;;5113525;27;20170;-77
2022/01/20 03:04:31;;;;;;;14.75;2.90;;;4.70;99.90;;;;;;5132933;27;20039;-77
2022/01/20 03:06:58;;;;;;;14.40;2.80;;;5.70;99.90;;;;;;5148033;27;20439;-77
2022/01/20 03:09:24;;;;;;;;;;;5.00;99.90;;;;;;5117752;27;20126;-77
2022/01/20 03:11:50;;;;;;;11.07;2.60;;;4.80;99.90;;;;;;5134100;27;20010;-75
2022/01/20 03:14:17;;;;;;;11.88;2.55;;;4.20;99.90;;;;;;5134148;27;20027;-76
2022/01/20 03:16:47;;;;;;;12.70;2.35;;;5.00;99.90;;;;;;5136615;27;20260;-76
2022/01/20 03:19:13;;;;;;;11.15;2.25;;;4.50;99.90;;;;;;5123805;27;20042;-76
2022/01/20 03:21:40;;;;;;;22.73;3.08;;;5.30;99.90;;;;;;5141069;27;20055;-76
2022/01/20 03:24:07;;;;;;;14.93;2.55;;;4.30;99.90;;;;;;5142119;27;20074;-76
2022/01/20 03:26:33;;;;;;;15.55;2.78;;;3.90;99.90;;;;;;5116114;27;20030;-76
2022/01/20 03:28:59;;;;;;;18.25;3.13;;;4.20;99.90;;;;;;5132673;27;20087;-76
2022/01/20 03:31:26;;;;;;;19.50;3.22;;;4.20;99.90;;;;;;5097912;27;20031;-76
2022/01/20 03:33:51;;;;;;;19.05;3.30;;;4.50;99.90;;;;;;5131427;27;20035;-76
2022/01/20 03:36:17;;;;;;;16.48;3.28;;;5.30;99.90;;;;;;5119340;27;20034;-76
2022/01/20 03:38:44;;;;;;;17.83;2.90;;;4.90;99.90;;;;;;5102630;27;20041;-76
2022/01/20 03:41:09;;;;;;;19.88;2.35;;;5.10;99.90;;;;;;5139047;27;20043;-75
2022/01/20 03:43:35;;;;;;;14.55;2.53;;;5.00;99.90;;;;;;5134320;27;20042;-75
2022/01/20 03:46:03;;;;;;;10.63;1.87;;;4.00;99.90;;;;;;5130089;27;20047;-76
2022/01/20 03:48:30;;;;;;;13.63;2.30;;;4.20;99.90;;;;;;5150958;27;20702;-76
2022/01/20 03:50:59;;;;;;;14.73;2.22;;;4.10;99.90;;;;;;5115239;27;20047;-76
2022/01/20 03:53:25;;;;;;;9.85;1.90;;;4.10;99.90;;;;;;5138972;27;20117;-75
2022/01/20 03:55:51;;;;;;;;;;;4.10;99.90;;;;;;5091907;27;20035;-76
2022/01/20 03:58:17;;;;;;;10.13;2.03;;;4.80;99.90;;;;;;5112304;27;20022;-76
2022/01/20 04:00:43;;;;;;;9.70;1.98;;;4.40;99.90;;;;;;5094958;27;20070;-76
2022/01/20 04:03:13;;;;;;;;;;;3.90;99.90;;;;;;5141337;27;20392;-76
2022/01/20 04:05:55;;;;;;;11.73;2.50;;;3.80;99.90;;;;;;5130455;27;20510;-76
2022/01/20 04:08:20;;;;;;;9.00;1.48;;;3.90;99.90;;;;;;5135858;27;20519;-76
2022/01/20 04:10:46;;;;;;;11.80;2.10;;;3.70;99.90;;;;;;5111662;27;20081;-76
2022/01/20 04:13:14;;;;;;;9.63;1.65;;;3.70;99.90;;;;;;5130490;27;20118;-76
2022/01/20 04:15:41;;;;;;;12.52;1.63;;;3.60;99.90;;;;;;5115490;27;20039;-76
2022/01/20 04:18:08;;;;;;;7.47;1.45;;;3.60;99.90;;;;;;5151012;27;20496;-75
2022/01/20 04:20:34;;;;;;;11.30;1.90;;;3.60;99.90;;;;;;5150294;27;20770;-75
2022/01/20 04:23:00;;;;;;;5.72;1.70;;;3.90;99.90;;;;;;5151095;27;20054;-75
2022/01/20 04:25:26;;;;;;;9.93;1.88;;;5.00;99.90;;;;;;5117884;27;20037;-76
2022/01/20 04:27:52;;;;;;;11.05;1.80;;;3.80;99.90;;;;;;5130325;27;20035;-75
2022/01/20 04:30:18;;;;;;;10.38;1.60;;;3.70;99.90;;;;;;5094645;27;20042;-76
2022/01/20 04:32:44;;;;;;;10.18;1.90;;;3.80;99.90;;;;;;5129654;27;20078;-76
2022/01/20 04:35:10;;;;;;;8.35;1.73;;;5.50;99.90;;;;;;5094684;27;20066;-75
2022/01/20 04:37:36;;;;;;;12.73;1.63;;;3.90;99.90;;;;;;5150053;27;20095;-76
2022/01/20 04:40:03;;;;;;;7.95;1.88;;;3.80;99.90;;;;;;5135271;27;20498;-76
2022/01/20 04:42:32;;;;;;;11.32;2.22;;;3.80;99.90;;;;;;5111248;27;20046;-76
2022/01/20 04:45:03;;;;;;;15.40;2.00;;;3.80;99.90;;;;;;5116942;27;20049;-75
2022/01/20 04:58:11;;;;;;;16.08;2.28;;;5.30;99.90;;;;;;5116295;27;20042;-76
2022/01/20 05:00:37;;;;;;;16.08;2.28;;;4.20;99.90;;;;;;5137073;27;20047;-76
2022/01/20 05:03:05;;;;;;;12.45;2.13;;;4.10;99.90;;;;;;5127192;27;20125;-76
2022/01/20 05:05:32;;;;;;;11.52;2.15;;;3.90;99.90;;;;;;5129207;27;20041;-76
2022/01/20 05:07:58;;;;;;;8.48;1.70;;;3.40;99.90;;;;;;5111552;27;20606;-76
2022/01/20 05:10:24;;;;;;;;;;;5.20;99.90;;;;;;5130544;27;20043;-76
2022/01/20 05:15:19;;;;;;;7.88;1.38;;;4.80;99.90;;;;;;5142545;27;20330;-76
2022/01/20 05:17:45;;;;;;;6.38;0.90;;;4.50;99.90;;;;;;5146128;27;20474;-75
2022/01/20 05:20:11;;;;;;;5.47;0.90;;;2.90;99.90;;;;;;5122351;27;20079;-75
2022/01/20 05:22:37;;;;;;;5.45;1.10;;;4.00;99.90;;;;;;5134176;27;20487;-76
2022/01/20 05:25:04;;;;;;;5.13;1.27;;;2.90;99.90;;;;;;5094748;27;20038;-76
2022/01/20 05:27:30;;;;;;;;;;;2.90;99.90;;;;;;5137990;27;20513;-75
2022/01/20 05:29:56;;;;;;;6.47;1.30;;;4.80;99.90;;;;;;5110723;27;19919;-75
2022/01/20 05:32:23;;;;;;;7.82;1.42;;;3.40;99.90;;;;;;5131283;27;20043;-75
2022/01/20 05:34:48;;;;;;;;;;;2.80;99.90;;;;;;5124035;27;20035;-75
2022/01/20 05:37:14;;;;;;;11.98;2.10;;;2.90;99.90;;;;;;5109103;27;19930;-75
2022/01/20 05:39:41;;;;;;;12.70;2.22;;;2.80;99.90;;;;;;5118590;27;20118;-76
2022/01/20 05:42:08;;;;;;;9.85;1.65;;;2.80;99.90;;;;;;5128893;27;20039;-75
2022/01/20 05:44:33;;;;;;;10.90;2.22;;;2.70;99.90;;;;;;5149801;27;20477;-74
2022/01/20 05:47:05;;;;;;;11.40;2.58;;;2.70;99.90;;;;;;5131493;27;20091;-74
2022/01/20 05:49:31;;;;;;;17.45;2.38;;;2.70;99.90;;;;;;5115974;27;20146;-74
2022/01/20 05:51:57;;;;;;;16.15;3.03;;;2.70;99.90;;;;;;5130588;27;20126;-73
2022/01/20 05:54:23;;;;;;;10.55;2.22;;;3.70;99.90;;;;;;5131355;27;20035;-74
2022/01/20 05:56:49;;;;;;;;;;;2.80;99.90;;;;;;5131431;27;20106;-74
2022/01/20 05:59:15;;;;;;;9.60;2.15;;;2.80;99.90;;;;;;5119882;27;19998;-75
2022/01/20 06:01:41;;;;;;;11.85;2.15;;;2.90;99.90;;;;;;5114161;27;20506;-75
2022/01/20 06:04:09;;;;;;;20.88;2.72;;;2.90;99.90;;;;;;5081482;27;20038;-75
2022/01/20 06:06:36;;;;;;;12.25;2.67;;;2.90;99.90;;;;;;5114560;27;20038;-75
2022/01/20 06:09:05;;;;;;;12.23;2.10;;;3.00;99.90;;;;;;5112703;27;20045;-75
2022/01/20 06:11:32;;;;;;;16.70;2.42;;;3.10;99.90;;;;;;5115574;27;20390;-75
2022/01/20 06:13:58;;;;;;;;;;;3.10;99.90;;;;;;5115409;27;20515;-75
2022/01/20 06:16:23;;;;;;;11.85;3.28;;;3.20;99.90;;;;;;5114969;27;19915;-75
2022/01/20 06:18:49;;;;;;;17.80;2.70;;;3.20;99.90;;;;;;5114450;27;20043;-75
2022/01/20 06:21:15;;;;;;;11.70;2.00;;;3.20;99.90;;;;;;5111418;28;20052;-75
2022/01/20 06:23:41;;;;;;;16.05;2.53;;;3.30;99.90;;;;;;5110998;28;20118;-75
2022/01/20 06:26:07;;;;;;;11.00;1.90;;;3.30;99.90;;;;;;5104172;27;20039;-75
2022/01/20 06:28:35;;;;;;;14.07;2.80;;;3.20;99.90;;;;;;5124505;27;20051;-75
2022/01/20 06:31:01;;;;;;;18.02;2.80;;;3.20;99.90;;;;;;5111196;28;20048;-74
2022/01/20 06:33:27;;;;;;;16.95;2.85;;;3.40;99.90;;;;;;5110919;28;20087;-75
2022/01/20 06:35:53;;;;;;;11.23;2.65;;;3.20;99.90;;;;;;5110941;28;20065;-75
2022/01/20 06:38:19;;;;;;;15.00;2.60;;;3.10;99.90;;;;;;5111090;28;20071;-75
2022/01/20 06:40:46;;;;;;;14.30;2.22;;;2.80;99.90;;;;;;5110648;28;20047;-74
2022/01/20 06:43:11;;;;;;;15.48;2.58;;;2.60;99.90;;;;;;5111060;28;20046;-75
2022/01/20 06:45:37;;;;;;;15.90;2.67;;;2.50;99.90;;;;;;5110716;28;20031;-75
2022/01/20 06:48:04;;;;;;;13.73;2.30;;;2.50;99.90;;;;;;5111379;28;20398;-75
2022/01/20 06:50:29;;;;;;;;;;;2.40;99.90;;;;;;5111191;28;20039;-74
2022/01/20 06:52:55;;;;;;;14.65;2.35;;;3.40;99.90;;;;;;5119143;27;19922;-75
2022/01/20 06:55:22;;;;;;;10.45;2.25;;;2.50;99.90;;;;;;5122451;27;20376;-75
2022/01/20 06:57:48;;;;;;;;;;;2.50;99.90;;;;;;5125126;27;20042;-75
2022/01/20 07:00:17;;;;;;;15.80;2.15;;;2.70;99.90;;;;;;5113705;27;19915;-74
2022/01/20 07:02:43;;;;;;;10.35;1.92;;;2.50;99.90;;;;;;5130590;27;20043;-75
2022/01/20 07:05:10;;;;;;;;;;;2.50;99.90;;;;;;5123305;27;20039;-75
2022/01/20 07:07:36;;;;;;;19.33;3.05;;;2.40;99.90;;;;;;5110532;28;19922;-75
2022/01/20 07:10:02;;;;;;;7.03;1.85;;;2.40;99.90;;;;;;5110339;28;20549;-75
2022/01/20 07:12:28;;;;;;;13.00;2.03;;;2.40;99.90;;;;;;5109372;28;20040;-75
2022/01/20 07:14:54;;;;;;;10.90;1.88;;;2.30;99.90;;;;;;5117159;27;20031;-74
2022/01/20 07:17:19;;;;;;;14.32;2.30;;;2.30;99.90;;;;;;5114078;27;20035;-75
2022/01/20 07:19:45;;;;;;;13.43;2.63;;;2.40;99.90;;;;;;5103421;27;20047;-75
2022/01/20 07:22:11;;;;;;;9.88;1.52;;;3.00;99.90;;;;;;5130856;27;20457;-75
2022/01/20 07:24:38;;;;;;;9.57;1.80;;;3.40;99.90;;;;;;5120691;27;20036;-75
2022/01/20 07:27:04;;;;;;;10.05;1.65;;;2.70;99.90;;;;;;5110019;28;20043;-75
2022/01/20 07:29:31;;;;;;;10.90;1.80;;;2.60;99.90;;;;;;5110001;28;20040;-75
2022/01/20 07:31:59;;;;;;;10.35;2.30;;;2.70;99.90;;;;;;5074243;28;20044;-75
2022/01/20 07:34:25;;;;;;;10.43;1.98;;;2.60;99.90;;;;;;5127568;27;20027;-74
2022/01/20 07:36:51;;;;;;;;;;;3.20;99.90;;;;;;5130992;27;20031;-75
2022/01/20 07:39:17;;;;;;;14.20;2.17;;;2.60;99.90;;;;;;5130576;27;19946;-75
2022/01/20 07:41:43;;;;;;;9.98;2.10;;;2.60;99.90;;;;;;5129986;27;20039;-75
2022/01/20 07:44:09;;;;;;;14.63;2.03;;;2.70;99.90;;;;;;5113532;27;20047;-75
2022/01/20 07:46:36;;;;;;;11.50;2.42;;;2.70;99.90;;;;;;5123904;27;20185;-75
2022/01/20 07:49:03;;;;;;;13.90;2.47;;;2.70;99.90;;;;;;5109462;28;20043;-75
2022/01/20 07:51:28;;;;;;;13.23;2.40;;;3.60;99.90;;;;;;5109630;28;20447;-75
2022/01/20 07:53:54;;;;;;;12.18;2.50;;;2.80;99.90;;;;;;5109216;28;20101;-75
2022/01/20 07:56:21;;;;;;;16.50;3.08;;;2.80;99.90;;;;;;5092900;28;20067;-74
2022/01/20 07:58:47;;;;;;;10.30;2.13;;;2.80;99.90;;;;;;5109519;28;20497;-75
2022/01/20 08:01:13;;;;;;;20.20;2.58;;;3.50;99.90;;;;;;5073595;28;20157;-75
2022/01/20 08:03:39;;;;;;;14.27;2.42;;;2.70;99.90;;;;;;5109859;28;20061;-75
2022/01/20 08:06:04;;;;;;;16.65;2.42;;;2.70;99.90;;;;;;5092555;28;20053;-75
2022/01/20 08:08:30;;;;;;;12.18;2.03;;;3.10;99.90;;;;;;5109335;28;20031;-75
2022/01/20 08:10:56;;;;;;;14.47;2.43;;;2.70;99.90;;;;;;5109252;28;20398;-74
2022/01/20 08:13:21;;;;;;;15.10;2.75;;;2.70;99.90;;;;;;5092527;28;20269;-75
2022/01/20 08:15:47;;;;;;;13.37;2.30;;;3.10;99.90;;;;;;5092334;28;20093;-75
2022/01/20 08:18:13;;;;;;;15.55;2.65;;;2.70;99.90;;;;;;5107030;27;20281;-75
2022/01/20 08:20:39;;;;;;;20.65;2.92;;;2.70;99.90;;;;;;5130941;27;20039;-75
2022/01/20 08:23:05;;;;;;;14.18;2.67;;;2.80;99.90;;;;;;5132383;27;20078;-75
2022/01/20 08:25:31;;;;;;;11.18;2.15;;;2.90;99.90;;;;;;5116009;27;20078;-75
2022/01/20 08:27:57;;;;;;;9.20;1.88;;;3.00;99.90;;;;;;5132544;27;20042;-74
2022/01/20 08:30:24;;;;;;;10.95;2.15;;;3.10;99.90;;;;;;5132664;27;20074;-75
2022/01/20 08:32:50;;;;;;;;;;;3.10;99.90;;;;;;5132782;27;20104;-75
2022/01/20 08:35:17;;;;;;;10.57;1.90;;;3.40;99.90;;;;;;5133243;27;19970;-74
2022/01/20 08:37:45;;;;;;;12.25;1.75;;;3.40;99.90;;;;;;5132758;27;20442;-74
2022/01/20 08:40:16;;;;;;;8.43;1.80;;;3.60;99.90;;;;;;5132743;27;20113;-76
2022/01/20 08:42:45;;;;;;;10.07;1.70;;;4.00;99.90;;;;;;5115882;27;20400;-76
2022/01/20 08:45:13;;;;;;;13.43;2.25;;;4.40;99.90;;;;;;5133054;27;20039;-76
2022/01/20 08:47:40;;;;;;;9.50;2.10;;;4.90;99.90;;;;;;5132241;27;20038;-76
2022/01/20 08:50:07;;;;;;;9.00;1.90;;;5.30;99.90;;;;;;5131962;27;20070;-76
2022/01/20 08:52:33;;;;;;;8.10;1.52;;;5.30;99.90;;;;;;5120060;27;20038;-76
2022/01/20 08:54:59;;;;;;;10.63;1.90;;;5.40;99.90;;;;;;5094749;27;20122;-76
2022/01/20 08:57:26;;;;;;;9.07;1.48;;;4.10;99.90;;;;;;5111675;27;20079;-76
2022/01/20 08:59:52;;;;;;;6.75;1.20;;;3.70;99.90;;;;;;5124736;27;20093;-76
2022/01/20 09:02:18;;;;;;;;;;;3.40;99.90;;;;;;5116017;27;20043;-76
2022/01/20 09:04:44;;;;;;;4.30;1.13;;;3.30;99.90;;;;;;5132332;27;19915;-76
2022/01/20 09:07:10;;;;;;;7.13;0.90;;;3.60;99.90;;;;;;5131625;27;20065;-76
2022/01/20 09:09:41;;;;;;;5.00;0.95;;;4.20;99.90;;;;;;5115448;27;20043;-76
2022/01/20 09:17:23;;;;;;;5.00;1.10;;;5.80;99.90;;;;;;5111941;27;20088;-76
2022/01/20 09:19:49;;;;;;;7.72;1.20;;;5.90;99.90;;;;;;5111159;27;20035;-76
2022/01/20 09:22:15;;;;;;;11.83;1.40;;;5.30;99.90;;;;;;5094459;27;20047;-76
2022/01/20 09:24:42;;;;;;;7.72;1.63;;;4.80;99.90;;;;;;5111223;27;20095;-76
2022/01/20 09:27:08;;;;;;;9.05;1.52;;;4.50;99.90;;;;;;5111592;27;20050;-76
2022/01/20 09:29:34;;;;;;;6.03;1.38;;;4.20;99.90;;;;;;5094405;27;20043;-76
2022/01/20 09:32:02;;;;;;;8.35;1.80;;;4.10;99.90;;;;;;5094341;27;20772;-76
2022/01/20 09:34:28;;;;;;;7.75;1.42;;;3.90;99.90;;;;;;5110740;27;20027;-76
2022/01/20 09:36:54;;;;;;;14.88;1.90;;;3.90;99.90;;;;;;5116571;27;20083;-76
2022/01/20 09:39:20;;;;;;;11.02;1.83;;;4.20;99.90;;;;;;5131983;27;20034;-76
2022/01/20 09:41:46;;;;;;;;;;;4.90;99.90;;;;;;5132519;27;20037;-76
2022/01/20 09:44:12;;;;;;;11.65;1.67;;;5.60;99.90;;;;;;5131982;27;20322;-76
2022/01/20 09:46:39;;;;;;;10.00;2.17;;;5.70;99.90;;;;;;5131747;27;20044;-76
2022/01/20 09:49:05;;;;;;;9.38;1.80;;;5.90;99.90;;;;;;5131623;27;20043;-76
2022/01/20 09:51:31;;;;;;;8.75;2.00;;;6.30;99.90;;;;;;5114576;27;20401;-76
2022/01/20 09:53:57;;;;;;;10.30;2.25;;;7.10;99.90;;;;;;5131427;27;20106;-76
2022/01/20 09:56:23;;;;;;;13.15;2.25;;;7.50;99.90;;;;;;5131921;27;20052;-76
2022/01/20 09:58:49;;;;;;;9.35;2.40;;;7.50;99.90;;;;;;5096260;27;20110;-76
2022/01/20 10:01:32;;;;;;;14.57;2.25;;;6.90;99.90;;;;;;5094882;27;20035;-76
2022/01/20 10:03:58;;;;;;;9.93;1.90;;;6.40;99.90;;;;;;5110730;27;20406;-76
2022/01/20 10:06:24;;;;;;;9.43;2.10;;;6.00;99.90;;;;;;5094711;27;20092;-76
2022/01/20 10:08:59;;;;;;;8.90;1.75;;;5.80;99.90;;;;;;5110930;27;20031;-76
2022/01/20 10:11:25;;;;;;;9.02;1.77;;;5.60;99.90;;;;;;5093953;27;20027;-76
2022/01/20 10:13:50;;;;;;;7.93;2.15;;;5.60;99.90;;;;;;5093721;27;20028;-76
2022/01/20 10:16:17;;;;;;;7.47;1.50;;;5.30;99.90;;;;;;5111499;27;20524;-76
2022/01/20 10:18:46;;;;;;;9.25;1.35;;;5.10;99.90;;;;;;5110913;27;20032;-76
2022/01/20 10:21:12;;;;;;;7.38;1.25;;;4.90;99.90;;;;;;5093784;27;20111;-76
2022/01/20 10:23:47;;;;;;;11.30;1.45;;;4.80;99.90;;;;;;5126048;27;20126;-76
2022/01/20 10:26:24;;;;;;;9.20;1.48;;;4.90;99.90;;;;;;5110642;27;20122;-76
2022/01/20 10:28:52;;;;;;;;;;;4.60;99.90;;;;;;5110924;27;20038;-76
2022/01/20 10:31:46;;;;;;;5.68;1.52;;;4.60;99.90;;;;;;5131646;27;19919;-76
2022/01/20 10:34:31;;;;;;;5.50;1.25;;;4.50;99.90;;;;;;5131074;27;20035;-76
2022/01/20 10:37:08;;;;;;;8.90;1.40;;;5.10;99.90;;;;;;5127364;27;20039;-76
2022/01/20 10:39:42;;;;;;;12.98;1.60;;;5.50;99.90;;;;;;5110977;27;20403;-76
2022/01/20 10:42:11;;;;;;;7.57;1.63;;;5.50;99.90;;;;;;5093878;28;20099;-76
2022/01/20 10:44:48;;;;;;;14.88;1.67;;;5.20;99.90;;;;;;5110770;27;20064;-76
2022/01/20 10:47:16;;;;;;;7.60;1.45;;;5.20;99.90;;;;;;5096353;27;20404;-76
2022/01/20 10:49:44;;;;;;;6.78;1.25;;;5.10;99.90;;;;;;5114435;27;20619;-76
2022/01/20 10:52:11;;;;;;;7.63;1.23;;;5.60;99.90;;;;;;5114495;27;20513;-76
2022/01/20 10:54:42;;;;;;;8.60;1.30;;;6.10;99.90;;;;;;5114585;27;20050;-76
2022/01/20 10:57:10;;;;;;;5.78;1.33;;;6.60;99.90;;;;;;5114162;27;20093;-76
2022/01/20 10:59:51;;;;;;;7.65;1.48;;;7.40;99.90;;;;;;5113936;27;20046;-76
2022/01/20 11:02:20;;;;;;;7.35;1.35;;;7.80;99.90;;;;;;5113978;27;20038;-76
2022/01/20 11:04:47;;;;;;;9.52;1.60;;;8.20;99.90;;;;;;5123160;27;20080;-76
2022/01/20 11:07:13;;;;;;;9.55;1.92;;;8.50;99.90;;;;;;5134855;27;20053;-77
2022/01/20 11:09:44;;;;;;;13.10;2.10;;;8.50;99.90;;;;;;5134310;27;20047;-77
2022/01/20 11:12:12;;;;;;;11.18;1.75;;;7.90;99.90;;;;;;5134599;27;20042;-76
2022/01/20 11:14:38;;;;;;;10.55;1.77;;;7.20;99.90;;;;;;5134309;27;20085;-76
2022/01/20 11:17:04;;;;;;;7.15;1.80;;;6.10;99.90;;;;;;5117089;27;20073;-77
2022/01/20 11:19:38;;;;;;;13.88;2.13;;;5.60;99.90;;;;;;5116765;27;20031;-75
2022/01/20 11:22:11;;;;;;;10.20;1.77;;;5.20;99.90;;;;;;5113484;27;20043;-77
2022/01/20 11:24:38;;;;;;;7.20;2.10;;;5.00;99.90;;;;;;5113371;27;20047;-74
2022/01/20 11:27:05;;;;;;;;;;;4.80;99.90;;;;;;5113768;27;20039;-75
2022/01/20 11:29:50;;;;;;;13.97;2.43;;;4.80;99.90;;;;;;5113454;27;19916;-75
2022/01/20 11:32:24;;;;;;;8.55;1.58;;;5.60;99.90;;;;;;5096793;27;20637;-76
2022/01/20 11:35:08;;;;;;;6.95;1.70;;;6.30;99.90;;;;;;5113911;27;20031;-75
2022/01/20 11:37:42;;;;;;;12.10;2.38;;;6.50;99.90;;;;;;5113489;27;20043;-75
2022/01/20 11:40:10;;;;;;;12.35;1.92;;;5.90;99.90;;;;;;5113611;27;20055;-75
2022/01/20 11:42:36;;;;;;;14.43;2.28;;;5.00;99.90;;;;;;5113510;27;20428;-74
2022/01/20 11:45:22;;;;;;;12.45;1.70;;;4.50;99.90;;;;;;5113149;27;20043;-74
2022/01/20 11:47:48;;;;;;;13.60;2.08;;;4.10;99.90;;;;;;5096399;27;20119;-76
2022/01/20 11:50:18;;;;;;;9.98;1.92;;;3.80;99.90;;;;;;5096018;27;20074;-76
2022/01/20 11:52:44;;;;;;;12.75;1.65;;;3.80;99.90;;;;;;5113192;27;20354;-76
2022/01/20 11:55:12;;;;;;;9.18;1.40;;;4.40;99.90;;;;;;5113307;27;20031;-76
2022/01/20 11:57:38;;;;;;;11.30;1.77;;;4.10;99.90;;;;;;5112422;27;20039;-76
2022/01/20 12:00:27;;;;;;;6.75;1.63;;;4.60;99.90;;;;;;5113004;27;20041;-76
2022/01/20 12:02:53;;;;;;;10.82;1.73;;;5.50;99.90;;;;;;5112900;27;20053;-76
2022/01/20 12:05:27;;;;;;;7.88;1.73;;;6.50;99.90;;;;;;5096098;27;20040;-76
2022/01/20 12:08:09;;;;;;;12.80;1.90;;;7.50;99.90;;;;;;5113388;27;20417;-76
2022/01/20 12:10:36;;;;;;;11.88;2.20;;;8.20;99.90;;;;;;5095569;27;20140;-76
2022/01/20 12:13:10;;;;;;;9.45;1.80;;;8.00;99.90;;;;;;5112482;27;20072;-76
2022/01/20 12:15:48;;;;;;;14.30;2.35;;;7.40;99.90;;;;;;5112901;27;20042;-76
2022/01/20 12:18:15;;;;;;;13.25;1.80;;;6.90;99.90;;;;;;5095643;27;21527;-76
2022/01/20 12:20:41;;;;;;;11.70;2.13;;;6.60;99.90;;;;;;5095651;27;20047;-76
2022/01/20 12:23:07;;;;;;;11.57;2.35;;;6.20;99.90;;;;;;5112376;27;20521;-76
2022/01/20 12:25:35;;;;;;;8.27;1.85;;;6.30;99.90;;;;;;5112607;27;20710;-76
2022/01/20 12:28:02;;;;;;;13.70;2.50;;;6.30;99.90;;;;;;5112304;27;20054;-76
2022/01/20 12:30:28;;;;;;;11.15;2.03;;;6.20;99.90;;;;;;5122266;27;20077;-76
2022/01/20 12:33:06;;;;;;;11.43;1.88;;;7.10;99.90;;;;;;5115920;27;20039;-76
2022/01/20 12:35:48;;;;;;;18.23;2.85;;;6.80;99.90;;;;;;5115568;27;20038;-76
2022/01/20 12:38:16;;;;;;;18.38;2.83;;;6.40;99.90;;;;;;5132633;27;20389;-75
2022/01/20 12:40:41;;;;;;;13.48;2.00;;;6.00;99.90;;;;;;5103372;27;20039;-75
2022/01/20 12:43:07;;;;;;;14.75;2.28;;;5.90;99.90;;;;;;5112322;27;20047;-75
2022/01/20 12:48:18;;;;;;;14.48;2.38;;;6.30;99.90;;;;;;5111681;27;20080;-75
2022/01/20 12:50:59;;;;;;;13.23;2.38;;;6.40;99.90;;;;;;5112044;27;20054;-75
2022/01/20 12:53:35;;;;;;;11.23;1.95;;;6.70;99.90;;;;;;5112160;27;20023;-75
2022/01/20 12:56:00;;;;;;;13.73;2.70;;;7.00;99.90;;;;;;5111872;27;20039;-75
2022/01/20 12:58:26;;;;;;;12.25;2.13;;;6.90;99.90;;;;;;5114650;27;20038;-75
2022/01/20 13:01:04;;;;;;;15.80;2.28;;;6.80;99.90;;;;;;5111926;27;20823;-75
2022/01/20 13:03:39;;;;;;;16.70;2.85;;;6.30;99.90;;;;;;5111830;27;20051;-76
2022/01/20 13:06:09;;;;;;;15.52;2.55;;;6.10;99.90;;;;;;5111609;27;20039;-76
2022/01/20 13:08:39;;;;;;;11.15;2.47;;;6.10;99.90;;;;;;5111328;27;20035;-76
2022/01/20 13:11:08;;;;;;;9.23;2.28;;;6.00;99.90;;;;;;5110543;27;20047;-76
2022/01/20 13:13:34;;;;;;;9.45;1.70;;;5.80;99.90;;;;;;5111646;27;20510;-76
2022/01/20 13:16:14;;;;;;;7.20;1.52;;;5.40;99.90;;;;;;5112361;27;20502;-76
2022/01/20 13:18:51;;;;;;;6.28;1.08;;;5.20;99.90;;;;;;5111544;27;20098;-76
2022/01/20 13:21:18;;;;;;;5.03;1.13;;;5.10;99.90;;;;;;5118942;27;20051;-76
2022/01/20 13:23:57;;;;;;;3.03;0.75;;;5.10;99.90;;;;;;5128630;27;20095;-76
2022/01/20 13:26:25;;;;;;;7.05;1.23;;;5.00;99.90;;;;;;5128488;27;20043;-76
2022/01/20 13:28:57;;;;;;;8.18;1.00;;;5.00;99.90;;;;;;5111393;27;20036;-76
2022/01/20 13:31:23;;;;;;;4.65;1.25;;;6.10;99.90;;;;;;5098703;28;20529;-76
2022/01/20 13:33:49;;;;;;;6.30;0.95;;;5.10;99.90;;;;;;5088955;28;20040;-76
2022/01/20 13:36:15;;;;;;;10.15;2.00;;;5.20;99.90;;;;;;5107662;28;20063;-76
2022/01/20 13:38:47;;;;;;;10.48;2.13;;;5.30;99.90;;;;;;5121723;28;20129;-77
2022/01/20 13:41:18;;;;;;;9.05;1.63;;;5.20;99.90;;;;;;5111154;28;20042;-76
2022/01/20 13:47:04;;;;;;;10.60;1.63;;;4.90;99.90;;;;;;5128264;28;20248;-76
2022/01/20 13:49:30;;;;;;;7.88;1.75;;;4.80;99.90;;;;;;5128875;28;20499;-76
2022/01/20 13:52:07;;;;;;;11.38;1.45;;;4.90;99.90;;;;;;5111110;28;20037;-76
2022/01/20 13:54:37;;;;;;;;;;;4.80;99.90;;;;;;5112064;28;20039;-76
2022/01/20 13:57:03;;;;;;;9.07;2.30;;;4.80;99.90;;;;;;5128617;28;19919;-76
2022/01/20 13:59:29;;;;;;;9.95;1.70;;;4.70;99.90;;;;;;5128180;28;20535;-76
2022/01/20 14:01:54;;;;;;;9.18;2.15;;;4.80;99.90;;;;;;5107797;28;20035;-76
2022/01/20 14:04:20;;;;;;;12.00;2.07;;;4.70;99.90;;;;;;5107515;28;20047;-76
2022/01/20 14:06:46;;;;;;;10.53;2.00;;;4.70;99.90;;;;;;5107747;28;20292;-76
2022/01/20 14:09:11;;;;;;;13.82;2.50;;;4.80;99.90;;;;;;5107345;28;20043;-76
2022/01/20 14:11:39;;;;;;;11.73;1.80;;;4.70;99.90;;;;;;5107334;28;20047;-76
2022/01/20 14:14:08;;;;;;;17.17;2.30;;;4.80;99.90;;;;;;5107682;28;20326;-76
2022/01/20 14:16:34;;;;;;;11.65;1.83;;;4.50;99.90;;;;;;5107885;28;20035;-76